sensor_id;sensor_type;location;lat;lon;timestamp;P1;durP1;ratioP1;P2;durP2;ratioP2
44578;SDS011;37422;51.402;0.016;2022-11-27T00:02:15;7.32;;;1.45;;
44578;SDS011;37422;51.402;0.016;2022-11-27T00:04:49;6.25;;;2.30;;
44578;SDS011;37422;51.402;0.016;2022-11-27T00:07:17;3.63;;;1.50;;
44578;SDS011;37422;51.402;0.016;2022-11-27T00:09:48;4.80;;;1.85;;
44578;SDS011;37422;51.402;0.016;2022-11-27T00:12:24;5.28;;;1.77;;
44578;SDS011;37422;51.402;0.016;2022-11-27T00:14:58;9.07;;;3.00;;
44578;SDS011;37422;51.402;0.016;2022-11-27T00:17:44;2.17;;;1.20;;
44578;SDS011;37422;51.402;0.016;2022-11-27T00:20:13;14.82;;;4.22;;
44578;SDS011;37422;51.402;0.016;2022-11-27T00:22:41;8.45;;;1.80;;
44578;SDS011;37422;51.402;0.016;2022-11-27T00:25:12;7.20;;;1.83;;
44578;SDS011;37422;51.402;0.016;2022-11-27T00:27:49;5.00;;;1.58;;
44578;SDS011;37422;51.402;0.016;2022-11-27T00:30:20;5.28;;;2.10;;
44578;SDS011;37422;51.402;0.016;2022-11-27T00:32:48;3.50;;;1.13;;
44578;SDS011;37422;51.402;0.016;2022-11-27T00:35:19;7.90;;;2.25;;
44578;SDS011;37422;51.402;0.016;2022-11-27T00:37:47;6.75;;;1.65;;
44578;SDS011;37422;51.402;0.016;2022-11-27T00:40:18;7.20;;;1.70;;
44578;SDS011;37422;51.402;0.016;2022-11-27T00:45:16;5.90;;;1.45;;
44578;SDS011;37422;51.402;0.016;2022-11-27T00:47:45;5.60;;;1.75;;
44578;SDS011;37422;51.402;0.016;2022-11-27T00:50:13;5.82;;;1.75;;
44578;SDS011;37422;51.402;0.016;2022-11-27T00:52:41;2.67;;;1.48;;
44578;SDS011;37422;51.402;0.016;2022-11-27T00:55:09;6.15;;;1.52;;
44578;SDS011;37422;51.402;0.016;2022-11-27T00:57:38;6.00;;;1.55;;
44578;SDS011;37422;51.402;0.016;2022-11-27T01:00:12;8.15;;;1.60;;
44578;SDS011;37422;51.402;0.016;2022-11-27T01:02:41;6.28;;;1.48;;
44578;SDS011;37422;51.402;0.016;2022-11-27T01:05:09;11.30;;;1.52;;
44578;SDS011;37422;51.402;0.016;2022-11-27T01:07:37;8.02;;;1.95;;
44578;SDS011;37422;51.402;0.016;2022-11-27T01:10:08;12.13;;;1.88;;
44578;SDS011;37422;51.402;0.016;2022-11-27T01:12:36;7.10;;;1.80;;
44578;SDS011;37422;51.402;0.016;2022-11-27T01:15:04;4.72;;;1.50;;
44578;SDS011;37422;51.402;0.016;2022-11-27T01:17:32;6.43;;;1.88;;
44578;SDS011;37422;51.402;0.016;2022-11-27T01:20:02;4.18;;;1.67;;
44578;SDS011;37422;51.402;0.016;2022-11-27T01:22:31;10.32;;;2.60;;
44578;SDS011;37422;51.402;0.016;2022-11-27T01:24:59;5.43;;;1.77;;
44578;SDS011;37422;51.402;0.016;2022-11-27T01:27:28;7.65;;;1.33;;
44578;SDS011;37422;51.402;0.016;2022-11-27T01:29:56;6.80;;;1.70;;
44578;SDS011;37422;51.402;0.016;2022-11-27T01:32:27;3.60;;;1.25;;
44578;SDS011;37422;51.402;0.016;2022-11-27T01:34:55;7.00;;;1.55;;
44578;SDS011;37422;51.402;0.016;2022-11-27T01:37:25;5.60;;;1.80;;
44578;SDS011;37422;51.402;0.016;2022-11-27T01:39:55;3.08;;;1.70;;
44578;SDS011;37422;51.402;0.016;2022-11-27T01:42:23;9.50;;;1.63;;
44578;SDS011;37422;51.402;0.016;2022-11-27T01:44:52;6.43;;;1.50;;
44578;SDS011;37422;51.402;0.016;2022-11-27T01:47:30;3.05;;;1.33;;
44578;SDS011;37422;51.402;0.016;2022-11-27T01:50:05;8.95;;;1.80;;
44578;SDS011;37422;51.402;0.016;2022-11-27T01:52:40;9.23;;;1.60;;
44578;SDS011;37422;51.402;0.016;2022-11-27T01:55:17;5.70;;;1.45;;
44578;SDS011;37422;51.402;0.016;2022-11-27T01:57:53;4.10;;;1.73;;
44578;SDS011;37422;51.402;0.016;2022-11-27T02:00:24;6.20;;;2.00;;
44578;SDS011;37422;51.402;0.016;2022-11-27T02:02:52;9.55;;;2.00;;
44578;SDS011;37422;51.402;0.016;2022-11-27T02:05:24;4.93;;;1.70;;
44578;SDS011;37422;51.402;0.016;2022-11-27T02:07:58;5.22;;;2.05;;
44578;SDS011;37422;51.402;0.016;2022-11-27T02:18:37;3.17;;;1.40;;
44578;SDS011;37422;51.402;0.016;2022-11-27T02:21:33;5.97;;;1.90;;
44578;SDS011;37422;51.402;0.016;2022-11-27T02:24:31;6.07;;;1.77;;
44578;SDS011;37422;51.402;0.016;2022-11-27T02:30:22;4.70;;;1.52;;
44578;SDS011;37422;51.402;0.016;2022-11-27T02:32:57;5.70;;;1.95;;
44578;SDS011;37422;51.402;0.016;2022-11-27T02:38:05;8.55;;;2.28;;
44578;SDS011;37422;51.402;0.016;2022-11-27T02:43:24;8.73;;;1.85;;
44578;SDS011;37422;51.402;0.016;2022-11-27T02:45:59;3.55;;;2.05;;
44578;SDS011;37422;51.402;0.016;2022-11-27T02:48:31;10.35;;;1.73;;
44578;SDS011;37422;51.402;0.016;2022-11-27T02:51:07;6.63;;;1.23;;
44578;SDS011;37422;51.402;0.016;2022-11-27T02:53:37;8.48;;;1.45;;
44578;SDS011;37422;51.402;0.016;2022-11-27T02:56:11;1.85;;;1.13;;
44578;SDS011;37422;51.402;0.016;2022-11-27T02:58:46;3.03;;;1.10;;
44578;SDS011;37422;51.402;0.016;2022-11-27T03:01:17;8.85;;;1.60;;
44578;SDS011;37422;51.402;0.016;2022-11-27T03:03:49;1.70;;;1.00;;
44578;SDS011;37422;51.402;0.016;2022-11-27T03:06:28;4.47;;;1.45;;
44578;SDS011;37422;51.402;0.016;2022-11-27T03:09:07;3.40;;;1.52;;
44578;SDS011;37422;51.402;0.016;2022-11-27T03:11:43;6.10;;;1.42;;
44578;SDS011;37422;51.402;0.016;2022-11-27T03:14:12;4.68;;;1.30;;
44578;SDS011;37422;51.402;0.016;2022-11-27T03:16:50;8.13;;;1.77;;
44578;SDS011;37422;51.402;0.016;2022-11-27T03:20:16;4.30;;;1.30;;
44578;SDS011;37422;51.402;0.016;2022-11-27T03:22:21;2.50;;;1.10;;
44578;SDS011;37422;51.402;0.016;2022-11-27T03:24:51;6.10;;;1.30;;
44578;SDS011;37422;51.402;0.016;2022-11-27T03:27:22;5.40;;;2.40;;
44578;SDS011;37422;51.402;0.016;2022-11-27T03:30:01;10.00;;;1.30;;
44578;SDS011;37422;51.402;0.016;2022-11-27T03:32:34;6.07;;;1.42;;
44578;SDS011;37422;51.402;0.016;2022-11-27T03:35:07;4.57;;;1.38;;
44578;SDS011;37422;51.402;0.016;2022-11-27T03:37:40;4.60;;;1.08;;
44578;SDS011;37422;51.402;0.016;2022-11-27T03:40:12;8.52;;;1.23;;
44578;SDS011;37422;51.402;0.016;2022-11-27T03:42:50;3.42;;;1.10;;
44578;SDS011;37422;51.402;0.016;2022-11-27T03:48:34;5.72;;;1.63;;
44578;SDS011;37422;51.402;0.016;2022-11-27T03:51:10;7.53;;;1.27;;
44578;SDS011;37422;51.402;0.016;2022-11-27T03:53:52;3.25;;;1.15;;
44578;SDS011;37422;51.402;0.016;2022-11-27T03:56:35;3.47;;;1.10;;
44578;SDS011;37422;51.402;0.016;2022-11-27T04:01:41;2.35;;;1.38;;
44578;SDS011;37422;51.402;0.016;2022-11-27T04:04:11;8.80;;;2.17;;
44578;SDS011;37422;51.402;0.016;2022-11-27T04:09:12;3.57;;;1.10;;
44578;SDS011;37422;51.402;0.016;2022-11-27T04:11:47;2.80;;;0.90;;
44578;SDS011;37422;51.402;0.016;2022-11-27T04:14:15;5.13;;;1.50;;
44578;SDS011;37422;51.402;0.016;2022-11-27T04:16:58;10.70;;;2.95;;
44578;SDS011;37422;51.402;0.016;2022-11-27T04:19:42;7.32;;;1.65;;
44578;SDS011;37422;51.402;0.016;2022-11-27T04:22:10;6.45;;;1.50;;
44578;SDS011;37422;51.402;0.016;2022-11-27T04:24:38;5.00;;;0.95;;
44578;SDS011;37422;51.402;0.016;2022-11-27T04:27:12;1.13;;;0.80;;
44578;SDS011;37422;51.402;0.016;2022-11-27T04:29:40;5.70;;;1.23;;
44578;SDS011;37422;51.402;0.016;2022-11-27T04:32:08;5.18;;;1.20;;
44578;SDS011;37422;51.402;0.016;2022-11-27T04:34:36;5.72;;;1.98;;
44578;SDS011;37422;51.402;0.016;2022-11-27T04:37:05;3.30;;;1.17;;
44578;SDS011;37422;51.402;0.016;2022-11-27T04:39:42;11.20;;;2.55;;
44578;SDS011;37422;51.402;0.016;2022-11-27T04:42:10;6.22;;;2.30;;
44578;SDS011;37422;51.402;0.016;2022-11-27T04:44:40;5.07;;;0.95;;
44578;SDS011;37422;51.402;0.016;2022-11-27T04:47:09;4.50;;;0.93;;
44578;SDS011;37422;51.402;0.016;2022-11-27T04:49:37;4.90;;;1.10;;
44578;SDS011;37422;51.402;0.016;2022-11-27T04:52:06;4.32;;;1.33;;
44578;SDS011;37422;51.402;0.016;2022-11-27T04:54:34;5.03;;;1.10;;
44578;SDS011;37422;51.402;0.016;2022-11-27T04:57:19;2.97;;;0.75;;
44578;SDS011;37422;51.402;0.016;2022-11-27T04:59:49;3.72;;;1.00;;
44578;SDS011;37422;51.402;0.016;2022-11-27T05:02:18;6.13;;;1.05;;
44578;SDS011;37422;51.402;0.016;2022-11-27T05:04:46;2.85;;;1.00;;
44578;SDS011;37422;51.402;0.016;2022-11-27T05:07:17;4.55;;;1.20;;
44578;SDS011;37422;51.402;0.016;2022-11-27T05:09:45;5.40;;;1.65;;
44578;SDS011;37422;51.402;0.016;2022-11-27T05:12:14;4.80;;;1.30;;
44578;SDS011;37422;51.402;0.016;2022-11-27T05:14:46;5.90;;;1.35;;
44578;SDS011;37422;51.402;0.016;2022-11-27T05:17:38;6.50;;;1.33;;
44578;SDS011;37422;51.402;0.016;2022-11-27T05:20:06;6.30;;;1.20;;
44578;SDS011;37422;51.402;0.016;2022-11-27T05:22:35;4.47;;;1.33;;
44578;SDS011;37422;51.402;0.016;2022-11-27T05:25:04;6.03;;;1.60;;
44578;SDS011;37422;51.402;0.016;2022-11-27T05:27:39;1.55;;;1.10;;
44578;SDS011;37422;51.402;0.016;2022-11-27T05:30:08;6.68;;;1.65;;
44578;SDS011;37422;51.402;0.016;2022-11-27T05:32:36;2.67;;;1.02;;
44578;SDS011;37422;51.402;0.016;2022-11-27T05:35:10;5.47;;;1.20;;
44578;SDS011;37422;51.402;0.016;2022-11-27T05:37:39;2.40;;;1.38;;
44578;SDS011;37422;51.402;0.016;2022-11-27T05:40:13;4.60;;;1.23;;
44578;SDS011;37422;51.402;0.016;2022-11-27T05:42:41;4.72;;;1.33;;
44578;SDS011;37422;51.402;0.016;2022-11-27T05:45:13;5.00;;;1.15;;
44578;SDS011;37422;51.402;0.016;2022-11-27T05:47:41;4.47;;;1.27;;
44578;SDS011;37422;51.402;0.016;2022-11-27T05:50:09;6.70;;;2.75;;
44578;SDS011;37422;51.402;0.016;2022-11-27T05:52:37;5.00;;;1.45;;
44578;SDS011;37422;51.402;0.016;2022-11-27T05:55:06;1.48;;;0.90;;
44578;SDS011;37422;51.402;0.016;2022-11-27T05:57:34;3.95;;;1.25;;
44578;SDS011;37422;51.402;0.016;2022-11-27T06:00:06;3.95;;;1.05;;
44578;SDS011;37422;51.402;0.016;2022-11-27T06:02:39;2.47;;;2.00;;
44578;SDS011;37422;51.402;0.016;2022-11-27T06:05:08;1.60;;;0.95;;
44578;SDS011;37422;51.402;0.016;2022-11-27T06:07:40;2.58;;;1.05;;
44578;SDS011;37422;51.402;0.016;2022-11-27T06:10:11;1.88;;;0.70;;
44578;SDS011;37422;51.402;0.016;2022-11-27T06:12:47;1.67;;;0.70;;
44578;SDS011;37422;51.402;0.016;2022-11-27T06:15:15;1.30;;;0.88;;
44578;SDS011;37422;51.402;0.016;2022-11-27T06:17:48;6.25;;;1.80;;
44578;SDS011;37422;51.402;0.016;2022-11-27T06:20:26;2.22;;;1.05;;
44578;SDS011;37422;51.402;0.016;2022-11-27T06:23:05;2.58;;;0.80;;
44578;SDS011;37422;51.402;0.016;2022-11-27T06:25:35;2.75;;;0.75;;
44578;SDS011;37422;51.402;0.016;2022-11-27T06:28:03;1.27;;;1.08;;
44578;SDS011;37422;51.402;0.016;2022-11-27T06:30:35;5.07;;;0.88;;
44578;SDS011;37422;51.402;0.016;2022-11-27T06:33:07;2.05;;;0.80;;
44578;SDS011;37422;51.402;0.016;2022-11-27T06:35:35;4.40;;;0.90;;
44578;SDS011;37422;51.402;0.016;2022-11-27T06:38:03;1.23;;;0.70;;
44578;SDS011;37422;51.402;0.016;2022-11-27T06:40:35;3.10;;;0.93;;
44578;SDS011;37422;51.402;0.016;2022-11-27T06:43:04;2.88;;;0.90;;
44578;SDS011;37422;51.402;0.016;2022-11-27T06:48:02;2.33;;;0.98;;
44578;SDS011;37422;51.402;0.016;2022-11-27T06:50:35;0.90;;;0.80;;
44578;SDS011;37422;51.402;0.016;2022-11-27T06:55:37;1.10;;;0.77;;
44578;SDS011;37422;51.402;0.016;2022-11-27T06:58:12;2.75;;;0.90;;
44578;SDS011;37422;51.402;0.016;2022-11-27T07:00:41;1.63;;;0.98;;
44578;SDS011;37422;51.402;0.016;2022-11-27T07:03:09;3.95;;;1.13;;
44578;SDS011;37422;51.402;0.016;2022-11-27T07:05:38;0.80;;;0.80;;
44578;SDS011;37422;51.402;0.016;2022-11-27T07:08:19;2.88;;;1.35;;
44578;SDS011;37422;51.402;0.016;2022-11-27T07:11:48;4.78;;;1.20;;
44578;SDS011;37422;51.402;0.016;2022-11-27T07:14:25;1.90;;;1.00;;
44578;SDS011;37422;51.402;0.016;2022-11-27T07:17:13;1.80;;;0.90;;
44578;SDS011;37422;51.402;0.016;2022-11-27T07:19:45;4.43;;;1.17;;
44578;SDS011;37422;51.402;0.016;2022-11-27T07:22:23;3.17;;;0.90;;
44578;SDS011;37422;51.402;0.016;2022-11-27T07:24:56;0.88;;;0.88;;
44578;SDS011;37422;51.402;0.016;2022-11-27T07:27:24;1.65;;;0.95;;
44578;SDS011;37422;51.402;0.016;2022-11-27T07:30:10;1.55;;;0.95;;
44578;SDS011;37422;51.402;0.016;2022-11-27T07:32:44;3.50;;;0.85;;
44578;SDS011;37422;51.402;0.016;2022-11-27T07:35:17;3.22;;;1.20;;
44578;SDS011;37422;51.402;0.016;2022-11-27T07:37:53;1.33;;;0.82;;
44578;SDS011;37422;51.402;0.016;2022-11-27T07:40:31;5.18;;;1.73;;
44578;SDS011;37422;51.402;0.016;2022-11-27T07:43:03;1.75;;;1.15;;
44578;SDS011;37422;51.402;0.016;2022-11-27T07:45:37;6.07;;;1.00;;
44578;SDS011;37422;51.402;0.016;2022-11-27T07:48:06;3.30;;;2.22;;
44578;SDS011;37422;51.402;0.016;2022-11-27T07:50:46;1.53;;;1.00;;
44578;SDS011;37422;51.402;0.016;2022-11-27T07:53:14;2.85;;;1.25;;
44578;SDS011;37422;51.402;0.016;2022-11-27T07:55:46;1.02;;;0.80;;
44578;SDS011;37422;51.402;0.016;2022-11-27T07:58:20;2.92;;;1.13;;
44578;SDS011;37422;51.402;0.016;2022-11-27T08:00:49;3.85;;;0.93;;
44578;SDS011;37422;51.402;0.016;2022-11-27T08:03:16;3.33;;;0.88;;
44578;SDS011;37422;51.402;0.016;2022-11-27T08:05:44;2.03;;;0.70;;
44578;SDS011;37422;51.402;0.016;2022-11-27T08:08:19;3.42;;;1.40;;
44578;SDS011;37422;51.402;0.016;2022-11-27T08:11:30;2.58;;;0.90;;
44578;SDS011;37422;51.402;0.016;2022-11-27T08:14:24;2.22;;;1.10;;
44578;SDS011;37422;51.402;0.016;2022-11-27T08:17:02;2.40;;;0.82;;
44578;SDS011;37422;51.402;0.016;2022-11-27T08:19:42;2.85;;;1.00;;
44578;SDS011;37422;51.402;0.016;2022-11-27T08:22:15;3.47;;;1.38;;
44578;SDS011;37422;51.402;0.016;2022-11-27T08:24:53;3.38;;;1.65;;
44578;SDS011;37422;51.402;0.016;2022-11-27T08:27:26;1.48;;;1.10;;
44578;SDS011;37422;51.402;0.016;2022-11-27T08:30:09;4.43;;;1.40;;
44578;SDS011;37422;51.402;0.016;2022-11-27T08:33:00;4.80;;;1.40;;
44578;SDS011;37422;51.402;0.016;2022-11-27T08:35:48;3.53;;;1.27;;
44578;SDS011;37422;51.402;0.016;2022-11-27T08:38:21;2.30;;;1.65;;
44578;SDS011;37422;51.402;0.016;2022-11-27T08:41:17;4.70;;;1.80;;
44578;SDS011;37422;51.402;0.016;2022-11-27T08:43:48;6.47;;;1.63;;
44578;SDS011;37422;51.402;0.016;2022-11-27T08:46:26;6.18;;;1.77;;
44578;SDS011;37422;51.402;0.016;2022-11-27T08:48:58;1.95;;;1.42;;
44578;SDS011;37422;51.402;0.016;2022-11-27T08:52:08;6.30;;;2.65;;
44578;SDS011;37422;51.402;0.016;2022-11-27T08:54:51;3.63;;;1.70;;
44578;SDS011;37422;51.402;0.016;2022-11-27T08:57:27;3.15;;;1.75;;
44578;SDS011;37422;51.402;0.016;2022-11-27T09:00:02;5.45;;;1.90;;
44578;SDS011;37422;51.402;0.016;2022-11-27T09:02:41;2.17;;;1.70;;
44578;SDS011;37422;51.402;0.016;2022-11-27T09:05:14;6.32;;;2.08;;
44578;SDS011;37422;51.402;0.016;2022-11-27T09:07:44;3.07;;;1.80;;
44578;SDS011;37422;51.402;0.016;2022-11-27T09:10:23;5.03;;;1.90;;
44578;SDS011;37422;51.402;0.016;2022-11-27T09:13:00;5.07;;;2.13;;
44578;SDS011;37422;51.402;0.016;2022-11-27T09:15:28;4.22;;;1.88;;
44578;SDS011;37422;51.402;0.016;2022-11-27T09:17:57;8.88;;;2.35;;
44578;SDS011;37422;51.402;0.016;2022-11-27T09:20:37;4.60;;;2.30;;
44578;SDS011;37422;51.402;0.016;2022-11-27T09:23:14;5.35;;;2.00;;
44578;SDS011;37422;51.402;0.016;2022-11-27T09:25:49;4.60;;;1.80;;
44578;SDS011;37422;51.402;0.016;2022-11-27T09:28:42;2.20;;;2.00;;
44578;SDS011;37422;51.402;0.016;2022-11-27T09:31:12;8.65;;;2.42;;
44578;SDS011;37422;51.402;0.016;2022-11-27T09:36:16;4.25;;;2.60;;
44578;SDS011;37422;51.402;0.016;2022-11-27T09:38:46;5.43;;;2.80;;
44578;SDS011;37422;51.402;0.016;2022-11-27T09:44:44;6.45;;;2.40;;
44578;SDS011;37422;51.402;0.016;2022-11-27T09:47:31;5.97;;;2.92;;
44578;SDS011;37422;51.402;0.016;2022-11-27T09:50:37;8.60;;;2.60;;
44578;SDS011;37422;51.402;0.016;2022-11-27T09:53:32;4.30;;;1.92;;
44578;SDS011;37422;51.402;0.016;2022-11-27T09:56:23;5.22;;;2.00;;
44578;SDS011;37422;51.402;0.016;2022-11-27T09:58:58;6.22;;;2.17;;
44578;SDS011;37422;51.402;0.016;2022-11-27T10:01:31;9.75;;;2.22;;
44578;SDS011;37422;51.402;0.016;2022-11-27T10:04:11;8.07;;;2.72;;
44578;SDS011;37422;51.402;0.016;2022-11-27T10:07:03;4.85;;;2.85;;
44578;SDS011;37422;51.402;0.016;2022-11-27T10:10:02;5.13;;;2.60;;
44578;SDS011;37422;51.402;0.016;2022-11-27T10:18:45;9.57;;;2.47;;
44578;SDS011;37422;51.402;0.016;2022-11-27T10:21:33;11.75;;;2.58;;
44578;SDS011;37422;51.402;0.016;2022-11-27T10:24:28;6.05;;;2.05;;
44578;SDS011;37422;51.402;0.016;2022-11-27T10:27:27;5.43;;;2.15;;
44578;SDS011;37422;51.402;0.016;2022-11-27T10:30:21;8.70;;;2.25;;
44578;SDS011;37422;51.402;0.016;2022-11-27T10:32:55;9.18;;;4.22;;
44578;SDS011;37422;51.402;0.016;2022-11-27T10:35:31;4.50;;;2.03;;
44578;SDS011;37422;51.402;0.016;2022-11-27T10:38:18;2.83;;;1.85;;
44578;SDS011;37422;51.402;0.016;2022-11-27T10:44:30;6.50;;;2.25;;
44578;SDS011;37422;51.402;0.016;2022-11-27T10:47:24;6.68;;;1.85;;
44578;SDS011;37422;51.402;0.016;2022-11-27T10:50:00;7.80;;;1.80;;
44578;SDS011;37422;51.402;0.016;2022-11-27T10:52:42;8.43;;;2.50;;
44578;SDS011;37422;51.402;0.016;2022-11-27T10:58:24;7.32;;;2.13;;
44578;SDS011;37422;51.402;0.016;2022-11-27T11:06:49;7.78;;;1.88;;
44578;SDS011;37422;51.402;0.016;2022-11-27T11:09:39;6.78;;;2.35;;
44578;SDS011;37422;51.402;0.016;2022-11-27T11:12:16;6.82;;;2.10;;
44578;SDS011;37422;51.402;0.016;2022-11-27T11:14:59;4.60;;;2.05;;
44578;SDS011;37422;51.402;0.016;2022-11-27T11:17:34;4.53;;;1.95;;
44578;SDS011;37422;51.402;0.016;2022-11-27T11:20:19;6.75;;;2.13;;
44578;SDS011;37422;51.402;0.016;2022-11-27T11:22:49;3.80;;;1.83;;
44578;SDS011;37422;51.402;0.016;2022-11-27T11:25:20;5.55;;;1.58;;
44578;SDS011;37422;51.402;0.016;2022-11-27T11:28:26;5.53;;;1.60;;
44578;SDS011;37422;51.402;0.016;2022-11-27T11:31:48;6.25;;;1.73;;
44578;SDS011;37422;51.402;0.016;2022-11-27T11:34:45;9.90;;;1.80;;
44578;SDS011;37422;51.402;0.016;2022-11-27T11:37:57;6.80;;;1.60;;
44578;SDS011;37422;51.402;0.016;2022-11-27T11:41:07;8.65;;;1.50;;
44578;SDS011;37422;51.402;0.016;2022-11-27T11:47:29;4.40;;;1.60;;
44578;SDS011;37422;51.402;0.016;2022-11-27T11:50:44;7.00;;;1.58;;
44578;SDS011;37422;51.402;0.016;2022-11-27T11:53:48;6.72;;;1.67;;
44578;SDS011;37422;51.402;0.016;2022-11-27T11:57:26;3.50;;;1.42;;
44578;SDS011;37422;51.402;0.016;2022-11-27T12:00:42;10.70;;;2.35;;
44578;SDS011;37422;51.402;0.016;2022-11-27T12:03:52;10.18;;;3.20;;
44578;SDS011;37422;51.402;0.016;2022-11-27T12:29:39;14.68;;;2.90;;
44578;SDS011;37422;51.402;0.016;2022-11-27T12:41:35;19.58;;;6.28;;
44578;SDS011;37422;51.402;0.016;2022-11-27T12:43:52;13.80;;;3.17;;
44578;SDS011;37422;51.402;0.016;2022-11-27T12:49:11;17.75;;;3.75;;
44578;SDS011;37422;51.402;0.016;2022-11-27T12:51:47;13.98;;;2.38;;
44578;SDS011;37422;51.402;0.016;2022-11-27T12:54:21;13.38;;;2.35;;
44578;SDS011;37422;51.402;0.016;2022-11-27T12:57:02;13.07;;;2.88;;
44578;SDS011;37422;51.402;0.016;2022-11-27T12:59:56;16.30;;;3.33;;
44578;SDS011;37422;51.402;0.016;2022-11-27T13:05:27;15.38;;;3.20;;
44578;SDS011;37422;51.402;0.016;2022-11-27T13:08:01;10.32;;;2.90;;
44578;SDS011;37422;51.402;0.016;2022-11-27T13:10:38;17.75;;;4.07;;
44578;SDS011;37422;51.402;0.016;2022-11-27T13:13:13;18.42;;;4.30;;
44578;SDS011;37422;51.402;0.016;2022-11-27T13:21:06;17.27;;;3.58;;
44578;SDS011;37422;51.402;0.016;2022-11-27T13:23:38;14.52;;;4.70;;
44578;SDS011;37422;51.402;0.016;2022-11-27T13:26:16;19.10;;;5.00;;
44578;SDS011;37422;51.402;0.016;2022-11-27T13:28:53;11.20;;;4.90;;
44578;SDS011;37422;51.402;0.016;2022-11-27T13:31:24;12.85;;;4.00;;
44578;SDS011;37422;51.402;0.016;2022-11-27T13:34:06;15.70;;;4.20;;
44578;SDS011;37422;51.402;0.016;2022-11-27T13:36:36;17.45;;;4.80;;
44578;SDS011;37422;51.402;0.016;2022-11-27T13:39:18;19.77;;;4.47;;
44578;SDS011;37422;51.402;0.016;2022-11-27T13:41:58;22.02;;;3.72;;
44578;SDS011;37422;51.402;0.016;2022-11-27T13:44:33;20.17;;;3.90;;
44578;SDS011;37422;51.402;0.016;2022-11-27T13:47:09;21.55;;;5.15;;
44578;SDS011;37422;51.402;0.016;2022-11-27T13:49:39;16.17;;;3.30;;
44578;SDS011;37422;51.402;0.016;2022-11-27T13:52:10;21.67;;;4.03;;
44578;SDS011;37422;51.402;0.016;2022-11-27T13:54:53;21.48;;;4.53;;
44578;SDS011;37422;51.402;0.016;2022-11-27T13:57:26;21.23;;;4.63;;
44578;SDS011;37422;51.402;0.016;2022-11-27T14:00:02;25.83;;;4.03;;
44578;SDS011;37422;51.402;0.016;2022-11-27T14:05:07;23.80;;;4.70;;
44578;SDS011;37422;51.402;0.016;2022-11-27T14:07:37;16.60;;;3.97;;
44578;SDS011;37422;51.402;0.016;2022-11-27T14:10:08;25.60;;;3.85;;
44578;SDS011;37422;51.402;0.016;2022-11-27T14:12:53;20.20;;;3.42;;
44578;SDS011;37422;51.402;0.016;2022-11-27T14:15:29;25.70;;;4.70;;
44578;SDS011;37422;51.402;0.016;2022-11-27T14:20:58;28.38;;;4.63;;
44578;SDS011;37422;51.402;0.016;2022-11-27T14:23:31;23.65;;;5.43;;
44578;SDS011;37422;51.402;0.016;2022-11-27T14:28:42;21.83;;;4.55;;
44578;SDS011;37422;51.402;0.016;2022-11-27T14:31:21;20.48;;;4.70;;
44578;SDS011;37422;51.402;0.016;2022-11-27T14:34:00;22.80;;;4.65;;
44578;SDS011;37422;51.402;0.016;2022-11-27T14:36:50;24.15;;;5.07;;
44578;SDS011;37422;51.402;0.016;2022-11-27T14:39:28;20.40;;;3.60;;
44578;SDS011;37422;51.402;0.016;2022-11-27T14:42:01;22.50;;;4.82;;
44578;SDS011;37422;51.402;0.016;2022-11-27T14:44:31;24.88;;;6.10;;
44578;SDS011;37422;51.402;0.016;2022-11-27T14:47:14;24.52;;;4.35;;
44578;SDS011;37422;51.402;0.016;2022-11-27T14:49:51;20.95;;;6.35;;
44578;SDS011;37422;51.402;0.016;2022-11-27T14:52:22;20.83;;;5.57;;
44578;SDS011;37422;51.402;0.016;2022-11-27T14:54:50;22.08;;;4.70;;
44578;SDS011;37422;51.402;0.016;2022-11-27T14:57:21;22.60;;;4.93;;
44578;SDS011;37422;51.402;0.016;2022-11-27T15:02:45;22.25;;;4.82;;
44578;SDS011;37422;51.402;0.016;2022-11-27T15:05:19;21.33;;;4.45;;
44578;SDS011;37422;51.402;0.016;2022-11-27T15:07:47;28.55;;;5.22;;
44578;SDS011;37422;51.402;0.016;2022-11-27T15:10:20;25.20;;;4.78;;
44578;SDS011;37422;51.402;0.016;2022-11-27T15:12:51;19.05;;;5.10;;
44578;SDS011;37422;51.402;0.016;2022-11-27T15:15:23;27.08;;;5.63;;
44578;SDS011;37422;51.402;0.016;2022-11-27T15:17:55;24.08;;;5.15;;
44578;SDS011;37422;51.402;0.016;2022-11-27T15:23:28;24.65;;;5.13;;
44578;SDS011;37422;51.402;0.016;2022-11-27T15:28:31;27.45;;;5.75;;
44578;SDS011;37422;51.402;0.016;2022-11-27T15:36:46;21.67;;;5.00;;
44578;SDS011;37422;51.402;0.016;2022-11-27T15:42:07;27.00;;;6.68;;
44578;SDS011;37422;51.402;0.016;2022-11-27T15:44:36;29.77;;;6.47;;
44578;SDS011;37422;51.402;0.016;2022-11-27T15:47:05;19.65;;;5.82;;
44578;SDS011;37422;51.402;0.016;2022-11-27T15:49:44;39.35;;;10.23;;
44578;SDS011;37422;51.402;0.016;2022-11-27T15:52:12;29.75;;;9.25;;
44578;SDS011;37422;51.402;0.016;2022-11-27T15:54:39;28.30;;;6.30;;
44578;SDS011;37422;51.402;0.016;2022-11-27T15:57:08;29.85;;;7.20;;
44578;SDS011;37422;51.402;0.016;2022-11-27T15:59:36;28.75;;;6.53;;
44578;SDS011;37422;51.402;0.016;2022-11-27T16:02:03;23.98;;;6.53;;
44578;SDS011;37422;51.402;0.016;2022-11-27T16:04:32;33.13;;;7.75;;
44578;SDS011;37422;51.402;0.016;2022-11-27T16:07:05;30.27;;;6.63;;
44578;SDS011;37422;51.402;0.016;2022-11-27T16:09:34;26.52;;;6.35;;
44578;SDS011;37422;51.402;0.016;2022-11-27T16:12:05;37.72;;;9.13;;
44578;SDS011;37422;51.402;0.016;2022-11-27T16:14:33;32.38;;;7.75;;
44578;SDS011;37422;51.402;0.016;2022-11-27T16:17:01;38.35;;;8.48;;
44578;SDS011;37422;51.402;0.016;2022-11-27T16:19:28;30.17;;;6.85;;
44578;SDS011;37422;51.402;0.016;2022-11-27T16:21:56;31.90;;;8.05;;
44578;SDS011;37422;51.402;0.016;2022-11-27T16:24:24;28.88;;;7.57;;
44578;SDS011;37422;51.402;0.016;2022-11-27T16:26:58;29.08;;;8.77;;
44578;SDS011;37422;51.402;0.016;2022-11-27T16:29:26;28.58;;;6.55;;
44578;SDS011;37422;51.402;0.016;2022-11-27T16:31:54;33.25;;;8.27;;
44578;SDS011;37422;51.402;0.016;2022-11-27T16:34:23;25.90;;;6.13;;
44578;SDS011;37422;51.402;0.016;2022-11-27T16:36:51;24.98;;;7.35;;
44578;SDS011;37422;51.402;0.016;2022-11-27T16:39:19;27.88;;;6.78;;
44578;SDS011;37422;51.402;0.016;2022-11-27T16:41:47;32.13;;;9.60;;
44578;SDS011;37422;51.402;0.016;2022-11-27T16:44:17;25.38;;;6.60;;
44578;SDS011;37422;51.402;0.016;2022-11-27T16:46:45;26.90;;;6.30;;
44578;SDS011;37422;51.402;0.016;2022-11-27T16:49:13;33.35;;;6.03;;
44578;SDS011;37422;51.402;0.016;2022-11-27T16:51:41;33.10;;;7.63;;
44578;SDS011;37422;51.402;0.016;2022-11-27T16:54:11;43.13;;;17.10;;
44578;SDS011;37422;51.402;0.016;2022-11-27T16:56:41;44.03;;;15.70;;
44578;SDS011;37422;51.402;0.016;2022-11-27T16:59:10;34.03;;;11.52;;
44578;SDS011;37422;51.402;0.016;2022-11-27T17:01:42;38.03;;;14.93;;
44578;SDS011;37422;51.402;0.016;2022-11-27T17:04:15;31.48;;;9.15;;
44578;SDS011;37422;51.402;0.016;2022-11-27T17:06:45;29.02;;;7.20;;
44578;SDS011;37422;51.402;0.016;2022-11-27T17:09:14;34.25;;;7.45;;
44578;SDS011;37422;51.402;0.016;2022-11-27T17:11:44;31.75;;;9.57;;
44578;SDS011;37422;51.402;0.016;2022-11-27T17:14:15;28.80;;;6.57;;
44578;SDS011;37422;51.402;0.016;2022-11-27T17:16:43;35.97;;;11.63;;
44578;SDS011;37422;51.402;0.016;2022-11-27T17:19:13;37.88;;;8.88;;
44578;SDS011;37422;51.402;0.016;2022-11-27T17:21:44;33.33;;;6.90;;
44578;SDS011;37422;51.402;0.016;2022-11-27T17:24:13;41.72;;;12.73;;
44578;SDS011;37422;51.402;0.016;2022-11-27T17:26:46;45.65;;;18.70;;
44578;SDS011;37422;51.402;0.016;2022-11-27T17:29:16;42.08;;;14.50;;
44578;SDS011;37422;51.402;0.016;2022-11-27T17:31:45;39.53;;;9.60;;
44578;SDS011;37422;51.402;0.016;2022-11-27T17:34:14;35.90;;;8.65;;
44578;SDS011;37422;51.402;0.016;2022-11-27T17:36:43;34.47;;;8.18;;
44578;SDS011;37422;51.402;0.016;2022-11-27T17:39:12;28.88;;;7.05;;
44578;SDS011;37422;51.402;0.016;2022-11-27T17:41:41;29.75;;;6.93;;